Time;durP1;ratioP1;P1;durP2;ratioP2;P2;SDS_P1;SDS_P2;PMS_P1;PMS_P2;Temp;Humidity;BMP_temperature;BMP_pressure;BME280_temperature;BME280_humidity;BME280_pressure;Samples;Min_cycle;Max_cycle;Signal;HPM_P1;HPM_P2
2023/02/10 00:00:27;;;;;;;33.80;21.10;;;;;;;;;;760068;184;918553;-65
2023/02/10 00:02:52;;;;;;;35.40;20.23;;;;;;;;;;763404;182;917399;-69
2023/02/10 00:05:18;;;;;;;35.60;20.40;;;;;;;;;;766912;179;917668;-69
2023/02/10 00:07:44;;;;;;;33.83;17.67;;;;;;;;;;765375;179;942641;-69
2023/02/10 00:10:10;;;;;;;38.37;21.13;;;;;;;;;;770301;180;712944;-69
2023/02/10 00:12:36;;;;;;;33.63;17.20;;;;;;;;;;758400;183;922998;-70
2023/02/10 00:15:03;;;;;;;36.37;19.73;;;;;;;;;;760568;183;916716;-69
2023/02/10 00:17:28;;;;;;;33.70;19.40;;;;;;;;;;759278;184;888741;-65
2023/02/10 00:19:54;;;;;;;29.00;18.30;;;;;;;;;;757053;182;916129;-69
2023/02/10 00:22:20;;;;;;;29.75;16.65;;;;;;;;;;752880;186;915475;-69
2023/02/10 00:24:46;;;;;;;32.17;17.97;;;;;;;;;;765290;180;918100;-69
2023/02/10 00:27:12;;;;;;;40.60;20.63;;;;;;;;;;757911;185;913921;-69
2023/02/10 00:29:38;;;;;;;34.60;19.20;;;;;;;;;;752846;182;915415;-64
2023/02/10 00:32:03;;;;;;;35.22;18.30;;;;;;;;;;755661;185;919105;-64
2023/02/10 00:34:29;;;;;;;27.57;16.40;;;;;;;;;;764660;181;917192;-69
2023/02/10 00:36:55;;;;;;;35.50;16.70;;;;;;;;;;750802;185;1022531;-69
2023/02/10 00:39:21;;;;;;;27.90;16.33;;;;;;;;;;754988;182;886956;-70
2023/02/10 00:41:47;;;;;;;33.63;18.97;;;;;;;;;;759715;182;919250;-66
2023/02/10 00:44:13;;;;;;;34.73;18.50;;;;;;;;;;751979;182;896548;-67
2023/02/10 00:46:39;;;;;;;30.20;18.10;;;;;;;;;;750775;185;919504;-65
2023/02/10 00:49:04;;;;;;;37.43;20.33;;;;;;;;;;756583;182;918972;-70
2023/02/10 00:51:30;;;;;;;30.00;17.07;;;;;;;;;;757669;182;919440;-68
2023/02/10 00:53:56;;;;;;;30.07;17.50;;;;;;;;;;759875;184;919355;-69
2023/02/10 00:56:22;;;;;;;37.33;20.43;;;;;;;;;;760330;182;632936;-66
2023/02/10 00:58:48;;;;;;;29.63;17.60;;;;;;;;;;763747;182;629265;-65
2023/02/10 01:01:14;;;;;;;32.80;19.60;;;;;;;;;;754499;183;919652;-69
2023/02/10 01:03:39;;;;;;;30.93;18.70;;;;;;;;;;756133;183;920267;-66
2023/02/10 01:06:05;;;;;;;36.53;19.93;;;;;;;;;;760012;183;629227;-68
2023/02/10 01:08:31;;;;;;;29.60;17.97;;;;;;;;;;760154;182;913815;-69
2023/02/10 01:11:02;;;;;;;42.63;18.80;;;;;;;;;;754505;185;918079;-69
2023/02/10 01:13:28;;;;;;;37.60;20.07;;;;;;;;;;755744;184;919674;-69
2023/02/10 01:15:53;;;;;;;31.20;18.37;;;;;;;;;;753499;185;818864;-65
2023/02/10 01:18:19;;;;;;;35.00;19.97;;;;;;;;;;761212;180;920743;-66
2023/02/10 01:20:45;;;;;;;33.10;18.40;;;;;;;;;;753741;184;919446;-66
2023/02/10 01:23:11;;;;;;;36.27;20.97;;;;;;;;;;759006;184;918842;-69
2023/02/10 01:25:37;;;;;;;34.10;20.20;;;;;;;;;;754108;183;919251;-65
2023/02/10 01:28:03;;;;;;;32.77;20.30;;;;;;;;;;756025;183;918736;-65
2023/02/10 01:30:29;;;;;;;42.00;21.10;;;;;;;;;;758945;182;918960;-65
2023/02/10 01:32:54;;;;;;;38.50;18.57;;;;;;;;;;755964;182;918838;-69
2023/02/10 01:35:20;;;;;;;29.30;19.27;;;;;;;;;;753312;183;919223;-65
2023/02/10 01:37:46;;;;;;;41.05;22.05;;;;;;;;;;760829;181;921739;-69
2023/02/10 01:40:12;;;;;;;36.33;20.93;;;;;;;;;;757733;184;918424;-65
2023/02/10 01:42:40;;;;;;;30.03;17.77;;;;;;;;;;755883;182;918142;-65
2023/02/10 01:45:23;;;;;;;32.85;18.65;;;;;;;;;;753049;183;926453;-65
2023/02/10 01:47:49;;;;;;;32.20;16.80;;;;;;;;;;751006;183;922960;-70
2023/02/10 01:50:14;;;;;;;33.67;17.73;;;;;;;;;;756082;182;915629;-65
2023/02/10 01:52:40;;;;;;;28.47;15.90;;;;;;;;;;761466;181;848243;-65
2023/02/10 01:55:06;;;;;;;33.47;20.33;;;;;;;;;;753898;183;919187;-65
2023/02/10 01:57:32;;;;;;;26.73;18.27;;;;;;;;;;767030;183;817655;-71
2023/02/10 01:59:58;;;;;;;30.67;18.57;;;;;;;;;;751436;183;920503;-66
2023/02/10 02:02:24;;;;;;;30.48;18.95;;;;;;;;;;743590;189;915983;-70
2023/02/10 02:04:49;;;;;;;33.87;18.37;;;;;;;;;;752496;181;918340;-69
2023/02/10 02:07:15;;;;;;;33.70;17.67;;;;;;;;;;761931;181;820030;-66
2023/02/10 02:09:41;;;;;;;32.07;17.00;;;;;;;;;;755106;182;919304;-65
2023/02/10 02:12:09;;;;;;;30.47;18.20;;;;;;;;;;752835;183;912789;-67
2023/02/10 02:14:45;;;;;;;34.30;16.50;;;;;;;;;;758882;183;918519;-66
2023/02/10 02:17:12;;;;;;;35.50;17.90;;;;;;;;;;765522;183;899274;-70
2023/02/10 02:19:44;;;;;;;31.30;16.93;;;;;;;;;;758350;181;922357;-70
2023/02/10 02:22:10;;;;;;;27.33;17.27;;;;;;;;;;757075;182;912687;-67
2023/02/10 02:24:53;;;;;;;26.03;16.70;;;;;;;;;;757429;183;817828;-70
2023/02/10 02:27:19;;;;;;;29.07;15.10;;;;;;;;;;750581;185;918621;-71
2023/02/10 02:29:48;;;;;;;26.17;15.67;;;;;;;;;;756838;182;921038;-65
2023/02/10 02:32:15;;;;;;;33.77;17.60;;;;;;;;;;755349;183;919026;-66
2023/02/10 02:34:40;;;;;;;28.13;16.63;;;;;;;;;;751192;183;920787;-70
2023/02/10 02:37:23;;;;;;;24.57;15.37;;;;;;;;;;759240;182;920072;-66
2023/02/10 02:39:49;;;;;;;30.30;15.20;;;;;;;;;;755073;182;918965;-66
2023/02/10 02:42:23;;;;;;;28.77;16.67;;;;;;;;;;743301;185;918974;-70
2023/02/10 02:44:49;;;;;;;31.27;16.70;;;;;;;;;;749645;183;917708;-70
2023/02/10 02:47:18;;;;;;;27.63;15.70;;;;;;;;;;761496;180;929269;-70
2023/02/10 02:49:45;;;;;;;29.02;16.55;;;;;;;;;;766153;180;915333;-70
2023/02/10 02:52:11;;;;;;;27.60;16.37;;;;;;;;;;757750;182;914984;-66
2023/02/10 02:54:42;;;;;;;29.77;14.53;;;;;;;;;;752702;182;919225;-65
2023/02/10 02:57:22;;;;;;;26.03;14.90;;;;;;;;;;750760;182;1019697;-69
2023/02/10 02:59:58;;;;;;;31.05;16.35;;;;;;;;;;755721;183;897488;-70
2023/02/10 03:02:24;;;;;;;32.30;17.87;;;;;;;;;;756519;186;905362;-70
2023/02/10 03:04:50;;;;;;;30.83;16.77;;;;;;;;;;754268;182;917458;-69
2023/02/10 03:07:15;;;;;;;29.08;16.80;;;;;;;;;;765611;180;940547;-65
2023/02/10 03:09:42;;;;;;;29.70;15.00;;;;;;;;;;758826;181;943045;-70
2023/02/10 03:12:07;;;;;;;29.83;16.30;;;;;;;;;;761686;181;919291;-70
2023/02/10 03:14:33;;;;;;;30.20;14.38;;;;;;;;;;757902;181;919178;-65
2023/02/10 03:16:59;;;;;;;25.93;14.03;;;;;;;;;;751620;184;919684;-70
2023/02/10 03:19:25;;;;;;;23.63;14.83;;;;;;;;;;762989;182;919497;-66
2023/02/10 03:21:51;;;;;;;24.40;14.50;;;;;;;;;;750986;182;1021253;-66
2023/02/10 03:24:17;;;;;;;30.10;15.70;;;;;;;;;;751424;182;824364;-70
2023/02/10 03:26:42;;;;;;;30.90;14.80;;;;;;;;;;758668;183;920397;-69
2023/02/10 03:29:08;;;;;;;28.23;14.87;;;;;;;;;;754001;185;920997;-65
2023/02/10 03:31:34;;;;;;;27.17;15.10;;;;;;;;;;753492;183;819819;-65
2023/02/10 03:34:00;;;;;;;31.43;16.10;;;;;;;;;;759335;182;918580;-69
2023/02/10 03:36:26;;;;;;;32.50;16.53;;;;;;;;;;760705;181;920292;-71
2023/02/10 03:38:52;;;;;;;25.30;14.07;;;;;;;;;;754822;184;920605;-70
2023/02/10 03:41:17;;;;;;;24.63;13.80;;;;;;;;;;755364;183;848183;-69
2023/02/10 03:43:43;;;;;;;24.20;13.23;;;;;;;;;;777640;179;1044774;-65
2023/02/10 03:46:09;;;;;;;24.70;13.73;;;;;;;;;;776271;179;914120;-65
2023/02/10 03:48:35;;;;;;;21.00;13.23;;;;;;;;;;760185;180;919840;-65
2023/02/10 03:51:01;;;;;;;25.73;14.60;;;;;;;;;;764944;183;919103;-66
2023/02/10 03:53:27;;;;;;;23.80;15.30;;;;;;;;;;765635;182;917891;-65
2023/02/10 03:55:52;;;;;;;25.83;15.07;;;;;;;;;;750096;183;919015;-65
2023/02/10 03:58:18;;;;;;;28.62;15.68;;;;;;;;;;758204;180;919201;-65
2023/02/10 04:00:44;;;;;;;27.27;15.33;;;;;;;;;;756300;183;920307;-65
2023/02/10 04:03:10;;;;;;;34.30;17.40;;;;;;;;;;756023;180;920410;-65
2023/02/10 04:05:36;;;;;;;22.10;14.10;;;;;;;;;;757254;183;919201;-66
2023/02/10 04:08:02;;;;;;;31.10;14.40;;;;;;;;;;767637;183;920989;-65
2023/02/10 04:10:28;;;;;;;21.30;12.67;;;;;;;;;;760682;183;915733;-65
2023/02/10 04:12:54;;;;;;;27.20;15.18;;;;;;;;;;755144;183;918871;-65
2023/02/10 04:15:20;;;;;;;28.60;15.70;;;;;;;;;;765543;183;919142;-65
2023/02/10 04:17:45;;;;;;;28.47;15.27;;;;;;;;;;761215;180;919432;-65
2023/02/10 04:20:11;;;;;;;28.20;14.07;;;;;;;;;;757295;183;918591;-66
2023/02/10 04:22:37;;;;;;;26.10;15.57;;;;;;;;;;760042;184;919358;-65
2023/02/10 04:25:03;;;;;;;26.47;13.83;;;;;;;;;;754695;184;918865;-65
2023/02/10 04:27:29;;;;;;;26.50;16.97;;;;;;;;;;755233;184;919182;-65
2023/02/10 04:29:55;;;;;;;22.67;14.10;;;;;;;;;;760598;184;918933;-65
2023/02/10 04:32:21;;;;;;;31.27;13.83;;;;;;;;;;756122;181;974837;-65
2023/02/10 04:34:47;;;;;;;29.90;15.83;;;;;;;;;;758190;184;918999;-65
2023/02/10 04:37:12;;;;;;;26.63;15.33;;;;;;;;;;754934;185;985239;-65
2023/02/10 04:39:38;;;;;;;29.47;16.97;;;;;;;;;;768131;183;918653;-65
2023/02/10 04:42:04;;;;;;;28.80;14.32;;;;;;;;;;756395;181;920098;-65
2023/02/10 04:44:30;;;;;;;31.67;14.60;;;;;;;;;;763036;183;915799;-64
2023/02/10 04:46:56;;;;;;;27.10;15.07;;;;;;;;;;760236;183;914769;-64
2023/02/10 04:49:22;;;;;;;26.07;14.33;;;;;;;;;;760080;183;919682;-64
2023/02/10 04:51:47;;;;;;;27.60;15.47;;;;;;;;;;764113;183;918553;-65
2023/02/10 04:54:13;;;;;;;30.33;16.92;;;;;;;;;;771144;183;923535;-64
2023/02/10 04:56:39;;;;;;;28.87;16.43;;;;;;;;;;758748;183;919036;-63
2023/02/10 04:59:05;;;;;;;31.43;16.07;;;;;;;;;;757163;183;920396;-64
2023/02/10 05:01:31;;;;;;;28.67;15.50;;;;;;;;;;762751;183;919057;-65
2023/02/10 05:03:57;;;;;;;30.67;16.43;;;;;;;;;;767011;183;918955;-64
2023/02/10 05:06:22;;;;;;;31.17;16.03;;;;;;;;;;760419;183;919876;-65
2023/02/10 05:08:49;;;;;;;27.70;16.33;;;;;;;;;;752132;183;918824;-65
2023/02/10 05:11:14;;;;;;;30.00;17.63;;;;;;;;;;759565;183;918764;-64
2023/02/10 05:13:40;;;;;;;28.60;16.90;;;;;;;;;;754334;182;918835;-64
2023/02/10 05:16:06;;;;;;;34.93;16.43;;;;;;;;;;750771;183;919299;-64
2023/02/10 05:18:32;;;;;;;33.90;17.83;;;;;;;;;;757468;180;918951;-64
2023/02/10 05:20:58;;;;;;;32.47;17.27;;;;;;;;;;754727;183;919724;-65
2023/02/10 05:23:24;;;;;;;29.57;17.20;;;;;;;;;;757040;183;1021844;-65
2023/02/10 05:25:50;;;;;;;28.57;18.37;;;;;;;;;;764128;183;918554;-64
2023/02/10 05:28:15;;;;;;;29.70;17.37;;;;;;;;;;774545;182;918872;-64
2023/02/10 05:30:41;;;;;;;33.00;17.83;;;;;;;;;;762895;182;919089;-64
2023/02/10 05:33:07;;;;;;;30.27;18.23;;;;;;;;;;755082;184;919075;-65
2023/02/10 05:35:33;;;;;;;40.47;19.50;;;;;;;;;;753079;187;919885;-64
2023/02/10 05:38:01;;;;;;;35.53;18.63;;;;;;;;;;753920;183;919558;-65
2023/02/10 05:40:25;;;;;;;35.17;18.30;;;;;;;;;;751254;182;920249;-65
2023/02/10 05:42:51;;;;;;;38.53;19.57;;;;;;;;;;765106;182;919108;-64
2023/02/10 05:45:17;;;;;;;35.03;19.03;;;;;;;;;;760305;183;919710;-64
2023/02/10 05:47:42;;;;;;;27.93;17.67;;;;;;;;;;766753;179;917177;-65
2023/02/10 05:50:08;;;;;;;33.13;19.17;;;;;;;;;;760774;183;918549;-64
2023/02/10 05:52:34;;;;;;;34.78;19.60;;;;;;;;;;753868;183;919134;-64
2023/02/10 05:55:00;;;;;;;31.80;18.10;;;;;;;;;;751510;183;1120894;-64
2023/02/10 05:57:26;;;;;;;32.60;19.63;;;;;;;;;;752548;183;918279;-64
2023/02/10 05:59:52;;;;;;;31.23;19.17;;;;;;;;;;766442;182;1018282;-64
2023/02/10 06:02:17;;;;;;;30.57;20.23;;;;;;;;;;767816;182;912492;-64
2023/02/10 06:04:43;;;;;;;37.90;21.83;;;;;;;;;;763285;183;915414;-64
2023/02/10 06:07:09;;;;;;;34.33;21.13;;;;;;;;;;767497;182;917796;-64
2023/02/10 06:09:35;;;;;;;36.00;19.80;;;;;;;;;;756980;183;921280;-65
2023/02/10 06:12:02;;;;;;;36.70;21.13;;;;;;;;;;755680;183;919569;-64
2023/02/10 06:14:27;;;;;;;38.10;19.50;;;;;;;;;;761083;183;919510;-64
2023/02/10 06:16:53;;;;;;;33.77;21.83;;;;;;;;;;756794;183;919149;-64
2023/02/10 06:19:19;;;;;;;35.03;20.80;;;;;;;;;;760814;183;922025;-64
2023/02/10 06:21:44;;;;;;;36.60;21.60;;;;;;;;;;759337;182;918042;-65
2023/02/10 06:24:11;;;;;;;39.40;20.07;;;;;;;;;;766438;183;920641;-64
2023/02/10 06:26:36;;;;;;;38.63;21.97;;;;;;;;;;760985;183;916322;-64
2023/02/10 06:29:02;;;;;;;41.10;22.50;;;;;;;;;;763828;183;917038;-64
2023/02/10 06:31:28;;;;;;;37.10;22.80;;;;;;;;;;763329;184;913140;-64
2023/02/10 06:33:54;;;;;;;41.80;22.80;;;;;;;;;;751311;184;919038;-65
2023/02/10 06:36:20;;;;;;;36.43;21.50;;;;;;;;;;749756;185;920022;-65
2023/02/10 06:38:47;;;;;;;36.70;21.90;;;;;;;;;;761216;180;919172;-64
2023/02/10 06:41:11;;;;;;;35.70;22.07;;;;;;;;;;755588;184;921768;-64
2023/02/10 06:43:37;;;;;;;39.93;22.23;;;;;;;;;;756273;183;918430;-64
2023/02/10 06:46:04;;;;;;;42.22;21.27;;;;;;;;;;758869;183;919705;-65
2023/02/10 06:48:30;;;;;;;39.83;24.43;;;;;;;;;;766408;183;918261;-64
2023/02/10 06:50:56;;;;;;;33.20;20.87;;;;;;;;;;760968;182;982253;-63
2023/02/10 06:53:22;;;;;;;38.90;22.30;;;;;;;;;;757938;180;917820;-65
2023/02/10 06:55:48;;;;;;;30.93;19.30;;;;;;;;;;759037;183;920048;-65
2023/02/10 06:58:13;;;;;;;35.80;19.97;;;;;;;;;;753680;183;919185;-65
2023/02/10 07:00:39;;;;;;;38.27;20.83;;;;;;;;;;754524;183;918078;-64
2023/02/10 07:03:05;;;;;;;40.12;21.25;;;;;;;;;;768573;180;917695;-65
2023/02/10 07:05:31;;;;;;;42.00;23.07;;;;;;;;;;759334;182;919974;-65
2023/02/10 07:07:59;;;;;;;37.43;22.77;;;;;;;;;;756817;180;919181;-64
2023/02/10 07:10:23;;;;;;;35.50;22.03;;;;;;;;;;765022;182;915936;-65
2023/02/10 07:12:51;;;;;;;38.90;23.80;;;;;;;;;;756357;180;1051578;-65
2023/02/10 07:15:17;;;;;;;48.07;25.00;;;;;;;;;;753957;183;1020658;-64
2023/02/10 07:17:41;;;;;;;46.50;22.63;;;;;;;;;;755209;181;956173;-66
2023/02/10 07:20:08;;;;;;;41.20;20.83;;;;;;;;;;763351;183;814038;-65
2023/02/10 07:22:33;;;;;;;37.53;18.80;;;;;;;;;;757754;179;930641;-65
2023/02/10 07:24:59;;;;;;;38.23;19.23;;;;;;;;;;757367;183;918725;-65
2023/02/10 07:27:25;;;;;;;32.57;19.70;;;;;;;;;;755816;183;919575;-65
2023/02/10 07:29:50;;;;;;;34.27;18.43;;;;;;;;;;760492;182;922383;-66
2023/02/10 07:32:16;;;;;;;34.03;21.00;;;;;;;;;;749627;183;979336;-65
2023/02/10 07:34:42;;;;;;;34.20;19.43;;;;;;;;;;762417;183;919729;-66
2023/02/10 07:37:09;;;;;;;30.93;18.53;;;;;;;;;;762090;179;918742;-66
2023/02/10 07:39:34;;;;;;;33.17;18.73;;;;;;;;;;762920;183;920822;-66
2023/02/10 07:42:00;;;;;;;30.07;17.70;;;;;;;;;;756010;183;919619;-66
2023/02/10 07:44:26;;;;;;;30.47;16.43;;;;;;;;;;759533;183;920481;-67
2023/02/10 07:46:52;;;;;;;31.17;17.23;;;;;;;;;;753003;183;918989;-66
2023/02/10 07:49:17;;;;;;;30.80;15.70;;;;;;;;;;757890;183;918816;-64
2023/02/10 07:51:43;;;;;;;28.57;17.50;;;;;;;;;;758255;180;919521;-67
2023/02/10 07:54:09;;;;;;;30.43;15.27;;;;;;;;;;761788;183;919956;-67
2023/02/10 07:56:35;;;;;;;29.40;16.40;;;;;;;;;;763020;183;919720;-67
2023/02/10 07:59:01;;;;;;;27.87;15.03;;;;;;;;;;762633;179;919665;-67
2023/02/10 08:01:27;;;;;;;28.40;16.47;;;;;;;;;;760707;183;919483;-67
2023/02/10 08:03:52;;;;;;;31.37;16.17;;;;;;;;;;763228;183;915548;-67
2023/02/10 08:06:18;;;;;;;22.40;13.93;;;;;;;;;;761545;183;916553;-67
2023/02/10 08:08:44;;;;;;;28.47;14.03;;;;;;;;;;761462;183;915293;-67
2023/02/10 08:11:10;;;;;;;29.40;14.47;;;;;;;;;;757928;182;918479;-68
2023/02/10 08:13:36;;;;;;;26.90;15.63;;;;;;;;;;752520;184;918856;-68
2023/02/10 08:16:07;;;;;;;29.77;14.47;;;;;;;;;;754902;184;921411;-68
2023/02/10 08:18:31;;;;;;;30.43;14.87;;;;;;;;;;750391;183;919566;-67
2023/02/10 08:20:57;;;;;;;29.93;15.20;;;;;;;;;;753284;185;920744;-67
2023/02/10 08:23:22;;;;;;;28.07;15.37;;;;;;;;;;754531;183;917953;-68
2023/02/10 08:25:49;;;;;;;30.13;16.73;;;;;;;;;;749320;186;1124050;-68
2023/02/10 08:28:14;;;;;;;24.20;14.13;;;;;;;;;;752533;185;919725;-68
2023/02/10 08:30:40;;;;;;;25.87;15.13;;;;;;;;;;758497;183;919064;-68
2023/02/10 08:33:06;;;;;;;22.33;14.47;;;;;;;;;;762581;183;919364;-68
2023/02/10 08:35:32;;;;;;;27.53;15.67;;;;;;;;;;759143;183;919587;-67
2023/02/10 08:37:58;;;;;;;23.97;13.20;;;;;;;;;;764561;183;919145;-68
2023/02/10 08:40:23;;;;;;;25.27;14.17;;;;;;;;;;766681;182;638001;-67
2023/02/10 08:42:51;;;;;;;25.80;16.80;;;;;;;;;;760828;183;919015;-68
2023/02/10 08:45:15;;;;;;;25.92;15.73;;;;;;;;;;761149;183;1018035;-68
2023/02/10 08:47:41;;;;;;;22.87;15.03;;;;;;;;;;763102;182;915381;-68
2023/02/10 08:50:07;;;;;;;25.03;14.43;;;;;;;;;;758708;183;918732;-67
2023/02/10 08:52:33;;;;;;;22.47;13.47;;;;;;;;;;751945;183;935141;-67
2023/02/10 08:54:59;;;;;;;25.00;14.77;;;;;;;;;;756029;183;918408;-68
2023/02/10 08:57:24;;;;;;;24.83;14.80;;;;;;;;;;762988;183;918963;-68
2023/02/10 08:59:50;;;;;;;28.73;17.00;;;;;;;;;;760115;183;923845;-67
2023/02/10 09:02:16;;;;;;;26.50;14.63;;;;;;;;;;755189;183;918776;-68
2023/02/10 09:04:42;;;;;;;25.67;13.68;;;;;;;;;;760470;183;917882;-67
2023/02/10 09:07:08;;;;;;;23.30;15.10;;;;;;;;;;757141;183;919603;-68
2023/02/10 09:09:34;;;;;;;26.00;14.70;;;;;;;;;;757585;183;919031;-67
2023/02/10 09:11:59;;;;;;;28.43;16.37;;;;;;;;;;759955;183;919265;-68
2023/02/10 09:14:25;;;;;;;21.20;13.43;;;;;;;;;;758208;183;918800;-67
2023/02/10 09:16:51;;;;;;;29.30;15.25;;;;;;;;;;755621;183;1019854;-68
2023/02/10 09:19:17;;;;;;;27.43;14.80;;;;;;;;;;765130;183;918464;-68
2023/02/10 09:21:43;;;;;;;26.87;17.70;;;;;;;;;;753948;183;922837;-67
2023/02/10 09:24:09;;;;;;;27.13;17.00;;;;;;;;;;755138;184;919087;-68
2023/02/10 09:26:35;;;;;;;27.57;15.40;;;;;;;;;;754924;183;1010804;-68
2023/02/10 09:29:00;;;;;;;29.00;15.20;;;;;;;;;;767692;181;918574;-68
2023/02/10 09:31:26;;;;;;;27.20;17.43;;;;;;;;;;759005;182;818023;-68
2023/02/10 09:33:52;;;;;;;23.90;14.20;;;;;;;;;;761143;180;918846;-68
2023/02/10 09:36:18;;;;;;;25.40;15.13;;;;;;;;;;764968;183;921512;-68
2023/02/10 09:38:44;;;;;;;25.60;15.33;;;;;;;;;;758728;183;919021;-68
2023/02/10 09:41:10;;;;;;;26.43;15.37;;;;;;;;;;760893;183;919762;-68
2023/02/10 09:43:45;;;;;;;29.37;14.90;;;;;;;;;;756542;183;921160;-69
2023/02/10 09:46:14;;;;;;;22.73;15.17;;;;;;;;;;767041;182;919509;-69
2023/02/10 09:48:43;;;;;;;23.73;12.23;;;;;;;;;;763376;182;961288;-70
2023/02/10 09:51:09;;;;;;;25.63;16.17;;;;;;;;;;758548;183;809805;-69
2023/02/10 09:53:35;;;;;;;26.83;15.80;;;;;;;;;;751808;183;916399;-69
2023/02/10 09:56:02;;;;;;;29.17;17.17;;;;;;;;;;768654;183;913597;-69
2023/02/10 09:58:30;;;;;;;27.70;16.40;;;;;;;;;;766326;180;923554;-69
2023/02/10 10:00:56;;;;;;;27.77;16.37;;;;;;;;;;760991;183;919711;-69
2023/02/10 10:03:22;;;;;;;28.53;15.80;;;;;;;;;;762294;183;918840;-69
2023/02/10 10:06:03;;;;;;;29.07;17.33;;;;;;;;;;757680;183;919757;-69
2023/02/10 10:08:33;;;;;;;30.40;18.10;;;;;;;;;;756099;184;1018745;-69
2023/02/10 10:10:59;;;;;;;36.83;20.23;;;;;;;;;;754004;183;918819;-69
2023/02/10 10:13:24;;;;;;;33.87;18.77;;;;;;;;;;757501;183;918385;-70
2023/02/10 10:16:00;;;;;;;29.03;17.77;;;;;;;;;;769250;183;929665;-69
2023/02/10 10:18:42;;;;;;;30.87;18.60;;;;;;;;;;757642;180;919579;-69
2023/02/10 10:21:08;;;;;;;29.83;18.10;;;;;;;;;;757859;183;919734;-68
2023/02/10 10:23:43;;;;;;;31.57;19.00;;;;;;;;;;760713;183;918355;-69
2023/02/10 10:26:12;;;;;;;29.13;18.33;;;;;;;;;;762636;183;922343;-69
2023/02/10 10:28:36;;;;;;;28.03;16.90;;;;;;;;;;768173;180;920407;-69
2023/02/10 10:31:03;;;;;;;31.80;18.67;;;;;;;;;;762457;182;920061;-69
2023/02/10 10:33:29;;;;;;;31.13;19.03;;;;;;;;;;759893;183;618718;-69
2023/02/10 10:36:00;;;;;;;29.30;19.27;;;;;;;;;;761022;184;816566;-69
2023/02/10 10:38:22;;;;;;;27.15;16.90;;;;;;;;;;755777;183;1221121;-69
2023/02/10 10:40:47;;;;;;;39.43;18.30;;;;;;;;;;758526;181;918945;-69
2023/02/10 10:43:13;;;;;;;35.38;18.52;;;;;;;;;;758982;182;893488;-69
2023/02/10 10:45:40;;;;;;;30.20;17.80;;;;;;;;;;761531;182;1125899;-68
2023/02/10 10:48:06;;;;;;;27.63;18.50;;;;;;;;;;773134;181;912279;-69
2023/02/10 10:50:32;;;;;;;33.67;20.00;;;;;;;;;;767383;183;782312;-69
2023/02/10 10:52:57;;;;;;;26.00;18.47;;;;;;;;;;773538;179;711409;-70
2023/02/10 10:55:28;;;;;;;32.22;19.95;;;;;;;;;;762739;183;818871;-69
2023/02/10 10:57:54;;;;;;;34.23;20.27;;;;;;;;;;758975;183;816444;-68
2023/02/10 11:00:22;;;;;;;31.40;17.67;;;;;;;;;;762321;183;918070;-69
2023/02/10 11:02:50;;;;;;;30.37;19.40;;;;;;;;;;764068;180;918714;-69
2023/02/10 11:05:19;;;;;;;31.03;20.57;;;;;;;;;;753223;183;918246;-68
2023/02/10 11:07:43;;;;;;;36.22;20.20;;;;;;;;;;755898;183;919444;-69
2023/02/10 11:10:08;;;;;;;31.53;18.57;;;;;;;;;;761833;183;826214;-69
2023/02/10 11:12:35;;;;;;;27.73;18.95;;;;;;;;;;751992;184;919259;-69
2023/02/10 11:15:01;;;;;;;32.37;18.60;;;;;;;;;;756499;183;919815;-69
2023/02/10 11:17:27;;;;;;;36.43;20.90;;;;;;;;;;761639;182;937034;-69
2023/02/10 11:19:52;;;;;;;37.57;18.60;;;;;;;;;;768218;182;920359;-69
2023/02/10 11:22:18;;;;;;;40.00;21.57;;;;;;;;;;766105;182;926297;-69
2023/02/10 11:24:49;;;;;;;33.45;19.70;;;;;;;;;;763277;183;912811;-69
2023/02/10 11:27:16;;;;;;;36.90;21.70;;;;;;;;;;763107;182;911573;-68
2023/02/10 11:29:50;;;;;;;39.20;20.87;;;;;;;;;;752726;184;910973;-68
2023/02/10 11:32:24;;;;;;;43.53;20.30;;;;;;;;;;747556;183;938694;-68
2023/02/10 11:34:50;;;;;;;36.60;17.93;;;;;;;;;;765477;182;905453;-68
2023/02/10 11:37:21;;;;;;;41.42;20.42;;;;;;;;;;756719;183;919407;-68
2023/02/10 11:39:47;;;;;;;32.57;18.83;;;;;;;;;;766190;183;916095;-69
2023/02/10 11:42:16;;;;;;;35.37;20.67;;;;;;;;;;762806;183;907810;-69
2023/02/10 11:44:42;;;;;;;28.63;17.73;;;;;;;;;;761894;182;830662;-69
2023/02/10 11:47:11;;;;;;;33.20;18.67;;;;;;;;;;768634;183;929147;-70
2023/02/10 11:49:37;;;;;;;38.13;20.87;;;;;;;;;;760053;186;811046;-68
2023/02/10 11:52:03;;;;;;;34.50;20.57;;;;;;;;;;771426;180;910283;-69
2023/02/10 11:54:29;;;;;;;32.60;18.08;;;;;;;;;;763045;182;1017698;-69
2023/02/10 11:59:48;;;;;;;35.03;18.90;;;;;;;;;;761855;183;916144;-69
2023/02/10 12:02:15;;;;;;;37.73;20.77;;;;;;;;;;766470;182;815126;-70
2023/02/10 12:04:53;;;;;;;38.37;22.97;;;;;;;;;;762472;182;627479;-71
2023/02/10 12:07:19;;;;;;;35.07;22.57;;;;;;;;;;763942;183;649376;-68
2023/02/10 12:09:48;;;;;;;40.53;24.03;;;;;;;;;;764140;183;817352;-69
2023/02/10 12:12:15;;;;;;;34.17;16.87;;;;;;;;;;770355;180;638136;-69
2023/02/10 12:14:49;;;;;;;38.30;19.98;;;;;;;;;;763884;183;917424;-69
2023/02/10 12:17:20;;;;;;;40.60;21.90;;;;;;;;;;760721;181;912437;-69
2023/02/10 12:20:01;;;;;;;38.27;21.47;;;;;;;;;;757245;183;918899;-69
2023/02/10 12:22:27;;;;;;;38.77;21.33;;;;;;;;;;753943;183;918104;-69
2023/02/10 12:25:11;;;;;;;33.97;20.97;;;;;;;;;;765166;182;1069187;-69
2023/02/10 12:27:42;;;;;;;38.10;20.17;;;;;;;;;;770496;183;917325;-68
2023/02/10 12:30:08;;;;;;;49.80;25.40;;;;;;;;;;765027;182;916936;-69
2023/02/10 12:32:39;;;;;;;34.95;19.98;;;;;;;;;;772726;182;919372;-67
2023/02/10 12:35:22;;;;;;;37.70;21.37;;;;;;;;;;764427;183;1022982;-67
2023/02/10 12:37:53;;;;;;;39.50;23.73;;;;;;;;;;760006;183;920476;-67
2023/02/10 12:40:24;;;;;;;37.93;21.33;;;;;;;;;;766994;182;919875;-69
2023/02/10 12:42:50;;;;;;;37.97;19.63;;;;;;;;;;772689;183;711684;-67
2023/02/10 12:45:17;;;;;;;38.73;21.73;;;;;;;;;;765023;183;1017498;-67
2023/02/10 12:47:58;;;;;;;43.23;22.63;;;;;;;;;;756242;183;1021964;-68
2023/02/10 12:50:28;;;;;;;37.73;21.80;;;;;;;;;;762060;183;815872;-69
2023/02/10 12:52:54;;;;;;;51.63;22.73;;;;;;;;;;760774;181;816941;-69
2023/02/10 12:55:21;;;;;;;42.90;23.00;;;;;;;;;;757673;183;817182;-68
2023/02/10 12:57:50;;;;;;;46.07;23.27;;;;;;;;;;752032;184;918543;-68
2023/02/10 13:00:19;;;;;;;37.17;22.80;;;;;;;;;;756751;183;815883;-69
2023/02/10 13:02:45;;;;;;;42.13;22.93;;;;;;;;;;765568;181;914373;-69
2023/02/10 13:05:11;;;;;;;40.40;23.30;;;;;;;;;;752312;182;920109;-69
2023/02/10 13:07:38;;;;;;;37.53;23.33;;;;;;;;;;759861;182;919485;-69
2023/02/10 13:10:22;;;;;;;40.67;23.10;;;;;;;;;;764049;182;919577;-70
2023/02/10 13:12:48;;;;;;;36.33;22.10;;;;;;;;;;754581;182;918531;-69
2023/02/10 13:15:19;;;;;;;41.60;23.73;;;;;;;;;;767842;182;918638;-69
2023/02/10 13:17:45;;;;;;;37.10;22.80;;;;;;;;;;761483;179;919177;-69
2023/02/10 13:20:26;;;;;;;42.93;22.80;;;;;;;;;;760965;183;1020623;-69
2023/02/10 13:22:54;;;;;;;45.83;24.50;;;;;;;;;;750077;183;919210;-68
2023/02/10 13:25:20;;;;;;;39.67;23.43;;;;;;;;;;760476;183;919366;-69
2023/02/10 13:27:47;;;;;;;40.90;22.83;;;;;;;;;;755728;183;821897;-69
2023/02/10 13:30:19;;;;;;;33.83;22.13;;;;;;;;;;753444;183;821797;-69
2023/02/10 13:32:51;;;;;;;34.73;18.97;;;;;;;;;;751630;183;996018;-69
2023/02/10 13:35:17;;;;;;;36.57;22.07;;;;;;;;;;761808;184;816591;-69
2023/02/10 13:37:43;;;;;;;44.63;23.77;;;;;;;;;;757402;181;816948;-69
2023/02/10 13:40:26;;;;;;;39.30;22.13;;;;;;;;;;773574;179;811687;-69
2023/02/10 13:42:52;;;;;;;42.30;24.30;;;;;;;;;;756349;182;917550;-69
2023/02/10 13:45:20;;;;;;;40.08;21.40;;;;;;;;;;766758;182;918652;-69
2023/02/10 13:47:48;;;;;;;44.80;23.42;;;;;;;;;;758027;184;919092;-69
2023/02/10 13:50:29;;;;;;;41.77;24.77;;;;;;;;;;760626;183;910730;-69
2023/02/10 13:52:57;;;;;;;37.77;20.43;;;;;;;;;;764409;181;815427;-69
2023/02/10 13:55:23;;;;;;;32.63;19.50;;;;;;;;;;755804;183;915510;-69
2023/02/10 13:57:51;;;;;;;38.57;22.60;;;;;;;;;;759053;181;888438;-69
2023/02/10 14:00:17;;;;;;;43.17;23.20;;;;;;;;;;764628;183;994215;-69
2023/02/10 14:02:45;;;;;;;35.27;21.00;;;;;;;;;;762958;182;917958;-69
2023/02/10 14:05:15;;;;;;;40.03;22.27;;;;;;;;;;761045;183;917825;-69